sensor_id;sensor_type;location;lat;lon;timestamp;P1;durP1;ratioP1;P2;durP2;ratioP2
59530;SDS011;45349;48.692;8.186;2023-07-30T00:02:26;3.53;;;1.40;;
59530;SDS011;45349;48.692;8.186;2023-07-30T00:04:53;2.50;;;1.60;;
59530;SDS011;45349;48.692;8.186;2023-07-30T00:07:20;3.03;;;1.30;;
59530;SDS011;45349;48.692;8.186;2023-07-30T00:10:11;2.97;;;1.40;;
59530;SDS011;45349;48.692;8.186;2023-07-30T00:12:38;4.53;;;2.07;;
59530;SDS011;45349;48.692;8.186;2023-07-30T00:15:06;5.17;;;1.30;;
59530;SDS011;45349;48.692;8.186;2023-07-30T00:17:34;1.27;;;1.07;;
59530;SDS011;45349;48.692;8.186;2023-07-30T00:20:01;3.27;;;1.23;;
59530;SDS011;45349;48.692;8.186;2023-07-30T00:22:28;5.83;;;1.53;;
59530;SDS011;45349;48.692;8.186;2023-07-30T00:24:54;5.00;;;2.73;;
59530;SDS011;45349;48.692;8.186;2023-07-30T00:27:21;4.57;;;2.77;;
59530;SDS011;45349;48.692;8.186;2023-07-30T00:29:53;7.10;;;3.03;;
59530;SDS011;45349;48.692;8.186;2023-07-30T00:32:20;4.60;;;2.93;;
59530;SDS011;45349;48.692;8.186;2023-07-30T00:35:13;6.57;;;3.37;;
59530;SDS011;45349;48.692;8.186;2023-07-30T00:37:40;8.23;;;3.30;;
59530;SDS011;45349;48.692;8.186;2023-07-30T00:40:07;5.30;;;3.10;;
59530;SDS011;45349;48.692;8.186;2023-07-30T00:42:34;5.40;;;3.33;;
59530;SDS011;45349;48.692;8.186;2023-07-30T00:45:00;4.13;;;3.00;;
59530;SDS011;45349;48.692;8.186;2023-07-30T00:47:29;4.40;;;3.27;;
59530;SDS011;45349;48.692;8.186;2023-07-30T00:49:56;4.90;;;3.40;;
59530;SDS011;45349;48.692;8.186;2023-07-30T00:52:24;4.50;;;3.37;;
59530;SDS011;45349;48.692;8.186;2023-07-30T00:54:54;4.90;;;3.30;;
59530;SDS011;45349;48.692;8.186;2023-07-30T00:57:23;3.50;;;2.73;;
59530;SDS011;45349;48.692;8.186;2023-07-30T00:59:54;5.50;;;3.20;;
59530;SDS011;45349;48.692;8.186;2023-07-30T01:02:22;4.83;;;3.17;;
59530;SDS011;45349;48.692;8.186;2023-07-30T01:04:53;4.47;;;2.70;;
59530;SDS011;45349;48.692;8.186;2023-07-30T01:07:20;4.20;;;3.20;;
59530;SDS011;45349;48.692;8.186;2023-07-30T01:10:13;4.47;;;2.70;;
59530;SDS011;45349;48.692;8.186;2023-07-30T01:12:41;4.00;;;2.77;;
59530;SDS011;45349;48.692;8.186;2023-07-30T01:15:09;4.07;;;3.23;;
59530;SDS011;45349;48.692;8.186;2023-07-30T01:17:36;3.70;;;2.87;;
59530;SDS011;45349;48.692;8.186;2023-07-30T01:20:03;4.10;;;2.80;;
59530;SDS011;45349;48.692;8.186;2023-07-30T01:22:32;3.83;;;2.93;;
59530;SDS011;45349;48.692;8.186;2023-07-30T01:24:58;3.57;;;3.27;;
59530;SDS011;45349;48.692;8.186;2023-07-30T01:27:28;3.97;;;2.90;;
59530;SDS011;45349;48.692;8.186;2023-07-30T01:29:58;3.37;;;2.57;;
59530;SDS011;45349;48.692;8.186;2023-07-30T01:32:32;6.70;;;3.60;;
59530;SDS011;45349;48.692;8.186;2023-07-30T01:35:00;3.73;;;2.83;;
59530;SDS011;45349;48.692;8.186;2023-07-30T01:37:28;5.23;;;3.00;;
59530;SDS011;45349;48.692;8.186;2023-07-30T01:39:57;5.50;;;2.33;;
59530;SDS011;45349;48.692;8.186;2023-07-30T01:42:27;4.13;;;2.80;;
59530;SDS011;45349;48.692;8.186;2023-07-30T01:44:54;5.47;;;2.83;;
59530;SDS011;45349;48.692;8.186;2023-07-30T01:47:21;4.60;;;2.47;;
59530;SDS011;45349;48.692;8.186;2023-07-30T01:49:54;2.87;;;2.40;;
59530;SDS011;45349;48.692;8.186;2023-07-30T01:52:20;3.60;;;2.70;;
59530;SDS011;45349;48.692;8.186;2023-07-30T01:55:13;3.17;;;2.60;;
59530;SDS011;45349;48.692;8.186;2023-07-30T01:57:40;3.20;;;2.50;;
59530;SDS011;45349;48.692;8.186;2023-07-30T02:00:07;5.13;;;2.30;;
59530;SDS011;45349;48.692;8.186;2023-07-30T02:02:34;2.73;;;2.33;;
59530;SDS011;45349;48.692;8.186;2023-07-30T02:05:01;3.30;;;2.23;;
59530;SDS011;45349;48.692;8.186;2023-07-30T02:07:27;4.30;;;2.27;;
59530;SDS011;45349;48.692;8.186;2023-07-30T02:09:54;2.57;;;2.30;;
59530;SDS011;45349;48.692;8.186;2023-07-30T02:12:22;4.23;;;2.67;;
59530;SDS011;45349;48.692;8.186;2023-07-30T02:14:54;2.90;;;2.50;;
59530;SDS011;45349;48.692;8.186;2023-07-30T02:17:21;4.50;;;2.50;;
59530;SDS011;45349;48.692;8.186;2023-07-30T02:19:54;5.53;;;2.60;;
59530;SDS011;45349;48.692;8.186;2023-07-30T02:22:21;4.30;;;2.40;;
59530;SDS011;45349;48.692;8.186;2023-07-30T02:25:12;4.77;;;2.20;;
59530;SDS011;45349;48.692;8.186;2023-07-30T02:27:40;2.67;;;2.37;;
59530;SDS011;45349;48.692;8.186;2023-07-30T02:30:11;2.57;;;2.13;;
59530;SDS011;45349;48.692;8.186;2023-07-30T02:32:41;4.53;;;2.33;;
59530;SDS011;45349;48.692;8.186;2023-07-30T02:35:11;3.23;;;2.43;;
59530;SDS011;45349;48.692;8.186;2023-07-30T02:37:41;3.67;;;2.43;;
59530;SDS011;45349;48.692;8.186;2023-07-30T02:40:09;3.20;;;2.30;;
59530;SDS011;45349;48.692;8.186;2023-07-30T02:42:45;2.97;;;2.40;;
59530;SDS011;45349;48.692;8.186;2023-07-30T02:45:14;5.53;;;2.03;;
59530;SDS011;45349;48.692;8.186;2023-07-30T02:47:44;2.53;;;1.70;;
59530;SDS011;45349;48.692;8.186;2023-07-30T02:50:11;2.33;;;1.80;;
59530;SDS011;45349;48.692;8.186;2023-07-30T02:52:42;2.87;;;1.93;;
59530;SDS011;45349;48.692;8.186;2023-07-30T02:55:13;3.30;;;1.80;;
59530;SDS011;45349;48.692;8.186;2023-07-30T02:57:46;1.77;;;1.40;;
59530;SDS011;45349;48.692;8.186;2023-07-30T03:00:20;2.77;;;1.60;;
59530;SDS011;45349;48.692;8.186;2023-07-30T03:02:49;3.63;;;1.67;;
59530;SDS011;45349;48.692;8.186;2023-07-30T03:05:16;1.80;;;1.50;;
59530;SDS011;45349;48.692;8.186;2023-07-30T03:07:43;3.87;;;1.60;;
59530;SDS011;45349;48.692;8.186;2023-07-30T03:10:10;2.10;;;1.50;;
59530;SDS011;45349;48.692;8.186;2023-07-30T03:12:36;1.77;;;1.30;;
59530;SDS011;45349;48.692;8.186;2023-07-30T03:15:05;2.60;;;1.40;;
59530;SDS011;45349;48.692;8.186;2023-07-30T03:17:32;1.80;;;1.47;;
59530;SDS011;45349;48.692;8.186;2023-07-30T03:19:58;2.37;;;1.50;;
59530;SDS011;45349;48.692;8.186;2023-07-30T03:22:25;2.43;;;1.30;;
59530;SDS011;45349;48.692;8.186;2023-07-30T03:24:53;2.03;;;1.50;;
59530;SDS011;45349;48.692;8.186;2023-07-30T03:27:20;2.30;;;1.10;;
59530;SDS011;45349;48.692;8.186;2023-07-30T03:32:55;1.83;;;1.30;;
59530;SDS011;45349;48.692;8.186;2023-07-30T03:35:21;3.70;;;1.40;;
59530;SDS011;45349;48.692;8.186;2023-07-30T03:37:48;2.75;;;1.52;;
59530;SDS011;45349;48.692;8.186;2023-07-30T03:40:14;1.40;;;1.13;;
59530;SDS011;45349;48.692;8.186;2023-07-30T03:42:41;1.70;;;1.30;;
59530;SDS011;45349;48.692;8.186;2023-07-30T03:45:08;3.23;;;1.67;;
59530;SDS011;45349;48.692;8.186;2023-07-30T03:47:35;3.10;;;1.47;;
59530;SDS011;45349;48.692;8.186;2023-07-30T03:50:03;3.13;;;1.37;;
59530;SDS011;45349;48.692;8.186;2023-07-30T03:52:30;2.80;;;1.70;;
59530;SDS011;45349;48.692;8.186;2023-07-30T03:54:57;1.50;;;1.20;;
59530;SDS011;45349;48.692;8.186;2023-07-30T03:57:23;1.70;;;1.37;;
59530;SDS011;45349;48.692;8.186;2023-07-30T03:59:54;3.30;;;1.50;;
59530;SDS011;45349;48.692;8.186;2023-07-30T04:02:20;3.00;;;1.50;;
59530;SDS011;45349;48.692;8.186;2023-07-30T04:05:13;2.50;;;1.50;;
59530;SDS011;45349;48.692;8.186;2023-07-30T04:07:40;1.80;;;1.40;;
59530;SDS011;45349;48.692;8.186;2023-07-30T04:10:07;1.87;;;1.67;;
59530;SDS011;45349;48.692;8.186;2023-07-30T04:12:33;2.03;;;1.23;;
59530;SDS011;45349;48.692;8.186;2023-07-30T04:15:00;1.57;;;1.47;;
59530;SDS011;45349;48.692;8.186;2023-07-30T04:17:27;2.43;;;1.70;;
59530;SDS011;45349;48.692;8.186;2023-07-30T04:19:54;3.20;;;2.10;;
59530;SDS011;45349;48.692;8.186;2023-07-30T04:22:22;3.63;;;1.53;;
59530;SDS011;45349;48.692;8.186;2023-07-30T04:24:53;2.20;;;1.40;;
59530;SDS011;45349;48.692;8.186;2023-07-30T04:27:20;2.00;;;1.77;;
59530;SDS011;45349;48.692;8.186;2023-07-30T04:29:53;2.33;;;1.60;;
59530;SDS011;45349;48.692;8.186;2023-07-30T04:32:20;2.67;;;1.87;;
59530;SDS011;45349;48.692;8.186;2023-07-30T04:34:54;2.50;;;1.93;;
59530;SDS011;45349;48.692;8.186;2023-07-30T04:37:20;2.27;;;1.70;;
59530;SDS011;45349;48.692;8.186;2023-07-30T04:39:54;2.30;;;1.87;;
59530;SDS011;45349;48.692;8.186;2023-07-30T04:42:21;1.50;;;1.40;;
59530;SDS011;45349;48.692;8.186;2023-07-30T04:44:53;2.57;;;2.07;;
59530;SDS011;45349;48.692;8.186;2023-07-30T04:47:21;2.13;;;1.73;;
59530;SDS011;45349;48.692;8.186;2023-07-30T04:49:54;1.93;;;1.73;;
59530;SDS011;45349;48.692;8.186;2023-07-30T04:52:20;2.30;;;1.63;;
59530;SDS011;45349;48.692;8.186;2023-07-30T04:54:55;1.93;;;1.70;;
59530;SDS011;45349;48.692;8.186;2023-07-30T04:57:22;3.57;;;2.07;;
59530;SDS011;45349;48.692;8.186;2023-07-30T04:59:52;2.20;;;1.60;;
59530;SDS011;45349;48.692;8.186;2023-07-30T05:02:18;2.50;;;2.00;;
59530;SDS011;45349;48.692;8.186;2023-07-30T05:04:45;2.13;;;1.93;;
59530;SDS011;45349;48.692;8.186;2023-07-30T05:07:11;4.43;;;1.87;;
59530;SDS011;45349;48.692;8.186;2023-07-30T05:09:38;2.60;;;1.87;;
59530;SDS011;45349;48.692;8.186;2023-07-30T05:12:06;3.00;;;1.73;;
59530;SDS011;45349;48.692;8.186;2023-07-30T05:14:33;4.10;;;1.70;;
59530;SDS011;45349;48.692;8.186;2023-07-30T05:17:00;1.97;;;1.60;;
59530;SDS011;45349;48.692;8.186;2023-07-30T05:19:28;1.90;;;1.63;;
59530;SDS011;45349;48.692;8.186;2023-07-30T05:21:54;2.23;;;1.60;;
59530;SDS011;45349;48.692;8.186;2023-07-30T05:24:21;1.90;;;1.47;;
59530;SDS011;45349;48.692;8.186;2023-07-30T05:26:48;2.13;;;1.50;;
59530;SDS011;45349;48.692;8.186;2023-07-30T05:29:16;2.80;;;1.60;;
59530;SDS011;45349;48.692;8.186;2023-07-30T05:31:42;1.80;;;1.43;;
59530;SDS011;45349;48.692;8.186;2023-07-30T05:34:10;1.60;;;1.20;;
59530;SDS011;45349;48.692;8.186;2023-07-30T05:36:36;4.40;;;1.37;;
59530;SDS011;45349;48.692;8.186;2023-07-30T05:39:03;2.33;;;1.03;;
59530;SDS011;45349;48.692;8.186;2023-07-30T05:41:30;2.30;;;1.70;;
59530;SDS011;45349;48.692;8.186;2023-07-30T05:43:56;1.83;;;1.40;;
59530;SDS011;45349;48.692;8.186;2023-07-30T05:46:24;3.23;;;1.60;;
59530;SDS011;45349;48.692;8.186;2023-07-30T05:48:51;2.67;;;1.67;;
59530;SDS011;45349;48.692;8.186;2023-07-30T05:51:18;1.77;;;1.40;;
59530;SDS011;45349;48.692;8.186;2023-07-30T05:53:44;2.00;;;1.60;;
59530;SDS011;45349;48.692;8.186;2023-07-30T05:56:11;5.37;;;2.07;;
59530;SDS011;45349;48.692;8.186;2023-07-30T05:58:39;3.43;;;2.17;;
59530;SDS011;45349;48.692;8.186;2023-07-30T06:01:06;2.33;;;1.60;;
59530;SDS011;45349;48.692;8.186;2023-07-30T06:03:34;2.27;;;1.73;;
59530;SDS011;45349;48.692;8.186;2023-07-30T06:06:00;4.87;;;1.60;;
59530;SDS011;45349;48.692;8.186;2023-07-30T06:08:27;3.70;;;2.20;;
59530;SDS011;45349;48.692;8.186;2023-07-30T06:10:54;2.40;;;1.73;;
59530;SDS011;45349;48.692;8.186;2023-07-30T06:13:21;3.07;;;2.20;;
59530;SDS011;45349;48.692;8.186;2023-07-30T06:15:47;3.53;;;2.20;;
59530;SDS011;45349;48.692;8.186;2023-07-30T06:18:14;4.73;;;2.10;;
59530;SDS011;45349;48.692;8.186;2023-07-30T06:20:42;2.83;;;2.10;;
59530;SDS011;45349;48.692;8.186;2023-07-30T06:23:08;3.40;;;2.30;;
59530;SDS011;45349;48.692;8.186;2023-07-30T06:25:35;3.53;;;1.80;;
59530;SDS011;45349;48.692;8.186;2023-07-30T06:28:01;2.33;;;1.90;;
59530;SDS011;45349;48.692;8.186;2023-07-30T06:30:28;2.00;;;1.80;;
59530;SDS011;45349;48.692;8.186;2023-07-30T06:32:55;2.93;;;1.60;;
59530;SDS011;45349;48.692;8.186;2023-07-30T06:35:21;2.23;;;1.40;;
59530;SDS011;45349;48.692;8.186;2023-07-30T06:37:50;2.23;;;1.50;;
59530;SDS011;45349;48.692;8.186;2023-07-30T06:40:17;1.30;;;1.20;;
59530;SDS011;45349;48.692;8.186;2023-07-30T06:42:43;2.37;;;1.47;;
59530;SDS011;45349;48.692;8.186;2023-07-30T06:45:10;1.57;;;1.37;;
59530;SDS011;45349;48.692;8.186;2023-07-30T06:47:36;1.80;;;1.57;;
59530;SDS011;45349;48.692;8.186;2023-07-30T06:50:03;2.53;;;1.37;;
59530;SDS011;45349;48.692;8.186;2023-07-30T06:52:33;1.63;;;1.30;;
59530;SDS011;45349;48.692;8.186;2023-07-30T06:55:01;1.63;;;1.30;;
59530;SDS011;45349;48.692;8.186;2023-07-30T06:57:28;1.57;;;1.37;;
59530;SDS011;45349;48.692;8.186;2023-07-30T06:59:55;2.07;;;1.00;;
59530;SDS011;45349;48.692;8.186;2023-07-30T07:02:23;3.27;;;1.20;;
59530;SDS011;45349;48.692;8.186;2023-07-30T07:04:53;5.00;;;1.20;;
59530;SDS011;45349;48.692;8.186;2023-07-30T07:07:20;1.40;;;1.20;;
59530;SDS011;45349;48.692;8.186;2023-07-30T07:09:54;1.30;;;1.00;;
59530;SDS011;45349;48.692;8.186;2023-07-30T07:12:21;1.83;;;1.30;;
59530;SDS011;45349;48.692;8.186;2023-07-30T07:14:54;2.50;;;1.40;;
59530;SDS011;45349;48.692;8.186;2023-07-30T07:17:23;2.30;;;1.30;;
59530;SDS011;45349;48.692;8.186;2023-07-30T07:19:53;1.73;;;1.27;;
59530;SDS011;45349;48.692;8.186;2023-07-30T07:22:20;2.50;;;1.30;;
59530;SDS011;45349;48.692;8.186;2023-07-30T07:24:54;1.87;;;1.40;;
59530;SDS011;45349;48.692;8.186;2023-07-30T07:27:21;2.20;;;1.10;;
59530;SDS011;45349;48.692;8.186;2023-07-30T07:29:53;2.40;;;1.30;;
59530;SDS011;45349;48.692;8.186;2023-07-30T07:32:20;4.67;;;1.40;;
59530;SDS011;45349;48.692;8.186;2023-07-30T07:35:12;2.07;;;1.30;;
59530;SDS011;45349;48.692;8.186;2023-07-30T07:37:38;2.30;;;1.40;;
59530;SDS011;45349;48.692;8.186;2023-07-30T07:40:05;4.03;;;1.70;;
59530;SDS011;45349;48.692;8.186;2023-07-30T07:42:36;2.30;;;1.40;;
59530;SDS011;45349;48.692;8.186;2023-07-30T07:45:04;3.50;;;1.60;;
59530;SDS011;45349;48.692;8.186;2023-07-30T07:47:31;3.73;;;1.60;;
59530;SDS011;45349;48.692;8.186;2023-07-30T07:49:58;2.17;;;1.50;;
59530;SDS011;45349;48.692;8.186;2023-07-30T07:52:24;1.90;;;1.40;;
59530;SDS011;45349;48.692;8.186;2023-07-30T07:54:54;4.50;;;1.70;;
59530;SDS011;45349;48.692;8.186;2023-07-30T07:57:20;2.40;;;1.40;;
59530;SDS011;45349;48.692;8.186;2023-07-30T08:00:13;2.00;;;1.30;;
59530;SDS011;45349;48.692;8.186;2023-07-30T08:02:40;2.27;;;1.80;;
59530;SDS011;45349;48.692;8.186;2023-07-30T08:05:07;3.70;;;1.90;;
59530;SDS011;45349;48.692;8.186;2023-07-30T08:07:34;3.43;;;1.90;;
59530;SDS011;45349;48.692;8.186;2023-07-30T08:10:00;3.70;;;1.97;;
59530;SDS011;45349;48.692;8.186;2023-07-30T08:12:27;2.43;;;1.83;;
59530;SDS011;45349;48.692;8.186;2023-07-30T08:14:54;7.40;;;2.17;;
59530;SDS011;45349;48.692;8.186;2023-07-30T08:17:22;5.77;;;2.03;;
59530;SDS011;45349;48.692;8.186;2023-07-30T08:19:54;3.73;;;2.00;;
59530;SDS011;45349;48.692;8.186;2023-07-30T08:22:20;2.90;;;2.00;;
59530;SDS011;45349;48.692;8.186;2023-07-30T08:24:54;5.43;;;2.70;;
59530;SDS011;45349;48.692;8.186;2023-07-30T08:27:20;2.80;;;2.20;;
59530;SDS011;45349;48.692;8.186;2023-07-30T08:29:51;3.73;;;1.70;;
59530;SDS011;45349;48.692;8.186;2023-07-30T08:32:17;3.83;;;2.20;;
59530;SDS011;45349;48.692;8.186;2023-07-30T08:34:45;4.40;;;2.20;;
59530;SDS011;45349;48.692;8.186;2023-07-30T08:37:12;4.53;;;1.90;;
59530;SDS011;45349;48.692;8.186;2023-07-30T08:39:38;3.10;;;1.83;;
59530;SDS011;45349;48.692;8.186;2023-07-30T08:42:05;2.60;;;2.00;;
59530;SDS011;45349;48.692;8.186;2023-07-30T08:44:32;3.40;;;2.30;;
59530;SDS011;45349;48.692;8.186;2023-07-30T08:46:58;3.60;;;1.93;;
59530;SDS011;45349;48.692;8.186;2023-07-30T08:49:25;2.77;;;1.70;;
59530;SDS011;45349;48.692;8.186;2023-07-30T08:51:54;4.80;;;1.90;;
59530;SDS011;45349;48.692;8.186;2023-07-30T08:54:21;4.73;;;1.93;;
59530;SDS011;45349;48.692;8.186;2023-07-30T08:56:49;2.30;;;1.80;;
59530;SDS011;45349;48.692;8.186;2023-07-30T08:59:16;4.17;;;1.90;;
59530;SDS011;45349;48.692;8.186;2023-07-30T09:01:45;4.90;;;1.80;;
59530;SDS011;45349;48.692;8.186;2023-07-30T09:04:13;1.90;;;1.67;;
59530;SDS011;45349;48.692;8.186;2023-07-30T09:06:43;5.63;;;2.00;;
59530;SDS011;45349;48.692;8.186;2023-07-30T09:09:11;3.63;;;1.57;;
59530;SDS011;45349;48.692;8.186;2023-07-30T09:11:39;2.70;;;1.53;;
59530;SDS011;45349;48.692;8.186;2023-07-30T09:14:06;3.40;;;1.97;;
59530;SDS011;45349;48.692;8.186;2023-07-30T09:16:33;2.97;;;1.90;;
59530;SDS011;45349;48.692;8.186;2023-07-30T09:18:59;4.57;;;1.60;;
59530;SDS011;45349;48.692;8.186;2023-07-30T09:21:29;2.40;;;1.60;;
59530;SDS011;45349;48.692;8.186;2023-07-30T09:23:56;2.33;;;1.57;;
59530;SDS011;45349;48.692;8.186;2023-07-30T09:26:24;2.17;;;1.43;;
59530;SDS011;45349;48.692;8.186;2023-07-30T09:28:50;4.10;;;1.87;;
59530;SDS011;45349;48.692;8.186;2023-07-30T09:31:17;2.53;;;1.70;;
59530;SDS011;45349;48.692;8.186;2023-07-30T09:33:44;2.40;;;1.50;;
59530;SDS011;45349;48.692;8.186;2023-07-30T09:36:10;2.60;;;1.70;;
59530;SDS011;45349;48.692;8.186;2023-07-30T09:38:38;3.77;;;1.70;;
59530;SDS011;45349;48.692;8.186;2023-07-30T09:41:05;4.13;;;1.77;;
59530;SDS011;45349;48.692;8.186;2023-07-30T09:43:33;3.23;;;1.77;;
59530;SDS011;45349;48.692;8.186;2023-07-30T09:46:01;4.30;;;1.80;;
59530;SDS011;45349;48.692;8.186;2023-07-30T09:48:29;3.70;;;1.97;;
59530;SDS011;45349;48.692;8.186;2023-07-30T09:50:56;2.53;;;1.70;;
59530;SDS011;45349;48.692;8.186;2023-07-30T09:53:23;2.30;;;1.73;;
59530;SDS011;45349;48.692;8.186;2023-07-30T09:55:50;3.97;;;1.87;;
59530;SDS011;45349;48.692;8.186;2023-07-30T09:58:17;3.10;;;2.00;;
59530;SDS011;45349;48.692;8.186;2023-07-30T10:00:45;2.97;;;1.63;;
59530;SDS011;45349;48.692;8.186;2023-07-30T10:03:14;4.90;;;1.73;;
59530;SDS011;45349;48.692;8.186;2023-07-30T10:05:41;2.90;;;1.70;;
59530;SDS011;45349;48.692;8.186;2023-07-30T10:08:11;4.03;;;2.00;;
59530;SDS011;45349;48.692;8.186;2023-07-30T10:10:43;6.87;;;2.27;;
59530;SDS011;45349;48.692;8.186;2023-07-30T10:13:10;4.40;;;1.97;;
59530;SDS011;45349;48.692;8.186;2023-07-30T10:15:38;3.50;;;1.93;;
59530;SDS011;45349;48.692;8.186;2023-07-30T10:18:07;2.80;;;1.70;;
59530;SDS011;45349;48.692;8.186;2023-07-30T10:20:34;2.93;;;1.93;;
59530;SDS011;45349;48.692;8.186;2023-07-30T10:23:01;5.97;;;2.10;;
59530;SDS011;45349;48.692;8.186;2023-07-30T10:25:41;5.13;;;2.00;;
59530;SDS011;45349;48.692;8.186;2023-07-30T10:28:09;4.23;;;2.00;;
59530;SDS011;45349;48.692;8.186;2023-07-30T10:30:35;2.67;;;2.10;;
59530;SDS011;45349;48.692;8.186;2023-07-30T10:33:02;3.37;;;2.03;;
59530;SDS011;45349;48.692;8.186;2023-07-30T10:35:42;4.60;;;2.40;;
59530;SDS011;45349;48.692;8.186;2023-07-30T10:38:14;2.60;;;2.07;;
59530;SDS011;45349;48.692;8.186;2023-07-30T10:40:42;2.33;;;1.80;;
59530;SDS011;45349;48.692;8.186;2023-07-30T10:43:27;2.50;;;1.90;;
59530;SDS011;45349;48.692;8.186;2023-07-30T10:45:54;2.63;;;1.83;;
59530;SDS011;45349;48.692;8.186;2023-07-30T10:48:29;5.93;;;2.03;;
59530;SDS011;45349;48.692;8.186;2023-07-30T10:50:57;3.90;;;1.87;;
59530;SDS011;45349;48.692;8.186;2023-07-30T10:53:24;2.67;;;1.70;;
59530;SDS011;45349;48.692;8.186;2023-07-30T10:55:50;5.83;;;1.90;;
59530;SDS011;45349;48.692;8.186;2023-07-30T10:58:19;2.70;;;1.60;;
59530;SDS011;45349;48.692;8.186;2023-07-30T11:00:48;3.70;;;1.47;;
59530;SDS011;45349;48.692;8.186;2023-07-30T11:03:15;2.57;;;1.63;;
59530;SDS011;45349;48.692;8.186;2023-07-30T11:05:41;2.30;;;1.40;;
59530;SDS011;45349;48.692;8.186;2023-07-30T11:08:09;2.97;;;1.70;;
59530;SDS011;45349;48.692;8.186;2023-07-30T11:10:41;2.70;;;1.50;;
59530;SDS011;45349;48.692;8.186;2023-07-30T11:13:08;4.37;;;1.40;;
59530;SDS011;45349;48.692;8.186;2023-07-30T11:15:40;3.93;;;1.73;;
59530;SDS011;45349;48.692;8.186;2023-07-30T11:18:07;3.87;;;1.70;;
59530;SDS011;45349;48.692;8.186;2023-07-30T11:20:34;2.90;;;1.70;;
59530;SDS011;45349;48.692;8.186;2023-07-30T11:23:01;3.83;;;1.80;;
59530;SDS011;45349;48.692;8.186;2023-07-30T11:25:29;3.90;;;1.97;;
59530;SDS011;45349;48.692;8.186;2023-07-30T11:27:56;5.43;;;2.10;;
59530;SDS011;45349;48.692;8.186;2023-07-30T11:30:23;3.43;;;1.97;;
59530;SDS011;45349;48.692;8.186;2023-07-30T11:32:49;4.93;;;1.63;;
59530;SDS011;45349;48.692;8.186;2023-07-30T11:35:16;4.10;;;1.53;;
59530;SDS011;45349;48.692;8.186;2023-07-30T11:37:43;5.80;;;1.90;;
59530;SDS011;45349;48.692;8.186;2023-07-30T11:40:10;3.50;;;1.70;;
59530;SDS011;45349;48.692;8.186;2023-07-30T11:42:38;3.17;;;1.57;;
59530;SDS011;45349;48.692;8.186;2023-07-30T11:45:17;5.93;;;1.47;;
59530;SDS011;45349;48.692;8.186;2023-07-30T11:47:45;3.83;;;1.80;;
59530;SDS011;45349;48.692;8.186;2023-07-30T11:50:11;5.17;;;1.60;;
59530;SDS011;45349;48.692;8.186;2023-07-30T11:52:50;3.73;;;1.70;;
59530;SDS011;45349;48.692;8.186;2023-07-30T11:55:17;4.87;;;1.73;;
59530;SDS011;45349;48.692;8.186;2023-07-30T11:57:46;5.03;;;1.70;;
59530;SDS011;45349;48.692;8.186;2023-07-30T12:00:13;3.03;;;1.50;;
59530;SDS011;45349;48.692;8.186;2023-07-30T12:02:40;3.43;;;1.37;;
59530;SDS011;45349;48.692;8.186;2023-07-30T12:05:09;3.60;;;1.47;;
59530;SDS011;45349;48.692;8.186;2023-07-30T12:07:39;3.10;;;1.40;;
59530;SDS011;45349;48.692;8.186;2023-07-30T12:10:06;4.03;;;1.60;;
59530;SDS011;45349;48.692;8.186;2023-07-30T12:12:34;6.23;;;1.50;;
59530;SDS011;45349;48.692;8.186;2023-07-30T12:15:09;3.33;;;1.30;;
59530;SDS011;45349;48.692;8.186;2023-07-30T12:17:36;7.13;;;1.67;;
59530;SDS011;45349;48.692;8.186;2023-07-30T12:20:03;12.33;;;1.80;;
59530;SDS011;45349;48.692;8.186;2023-07-30T12:22:31;4.20;;;1.83;;
59530;SDS011;45349;48.692;8.186;2023-07-30T12:24:59;4.70;;;1.70;;
59530;SDS011;45349;48.692;8.186;2023-07-30T12:27:26;2.93;;;1.50;;
59530;SDS011;45349;48.692;8.186;2023-07-30T12:29:54;4.23;;;1.50;;
59530;SDS011;45349;48.692;8.186;2023-07-30T12:32:22;2.47;;;1.70;;
59530;SDS011;45349;48.692;8.186;2023-07-30T12:34:53;5.17;;;1.60;;
59530;SDS011;45349;48.692;8.186;2023-07-30T12:37:20;3.53;;;1.40;;
59530;SDS011;45349;48.692;8.186;2023-07-30T12:39:51;3.70;;;1.53;;
59530;SDS011;45349;48.692;8.186;2023-07-30T12:42:17;6.23;;;1.70;;
59530;SDS011;45349;48.692;8.186;2023-07-30T12:44:44;2.77;;;1.50;;
59530;SDS011;45349;48.692;8.186;2023-07-30T12:47:10;2.67;;;1.40;;
59530;SDS011;45349;48.692;8.186;2023-07-30T12:49:38;6.30;;;1.60;;
59530;SDS011;45349;48.692;8.186;2023-07-30T12:52:07;4.60;;;1.80;;
59530;SDS011;45349;48.692;8.186;2023-07-30T12:54:34;6.37;;;1.53;;
59530;SDS011;45349;48.692;8.186;2023-07-30T12:57:00;3.57;;;1.80;;
59530;SDS011;45349;48.692;8.186;2023-07-30T12:59:27;6.53;;;1.80;;
59530;SDS011;45349;48.692;8.186;2023-07-30T13:01:53;4.60;;;1.90;;
59530;SDS011;45349;48.692;8.186;2023-07-30T13:04:20;5.13;;;1.80;;
59530;SDS011;45349;48.692;8.186;2023-07-30T13:06:48;3.93;;;1.93;;
59530;SDS011;45349;48.692;8.186;2023-07-30T13:09:15;5.70;;;1.47;;
59530;SDS011;45349;48.692;8.186;2023-07-30T13:11:41;5.13;;;1.70;;
59530;SDS011;45349;48.692;8.186;2023-07-30T13:14:08;3.07;;;1.60;;
59530;SDS011;45349;48.692;8.186;2023-07-30T13:16:35;6.17;;;1.43;;
59530;SDS011;45349;48.692;8.186;2023-07-30T13:19:01;3.97;;;1.57;;
59530;SDS011;45349;48.692;8.186;2023-07-30T13:21:28;3.67;;;1.40;;
59530;SDS011;45349;48.692;8.186;2023-07-30T13:23:56;3.37;;;1.53;;
59530;SDS011;45349;48.692;8.186;2023-07-30T13:26:22;3.47;;;1.30;;
59530;SDS011;45349;48.692;8.186;2023-07-30T13:28:49;5.37;;;1.50;;
59530;SDS011;45349;48.692;8.186;2023-07-30T13:31:15;5.03;;;1.47;;
59530;SDS011;45349;48.692;8.186;2023-07-30T13:33:44;3.67;;;1.50;;
59530;SDS011;45349;48.692;8.186;2023-07-30T13:36:12;2.67;;;1.23;;
59530;SDS011;45349;48.692;8.186;2023-07-30T13:38:39;3.30;;;1.50;;
59530;SDS011;45349;48.692;8.186;2023-07-30T13:41:07;3.87;;;1.23;;
59530;SDS011;45349;48.692;8.186;2023-07-30T13:43:34;3.33;;;1.53;;
59530;SDS011;45349;48.692;8.186;2023-07-30T13:46:00;6.37;;;1.43;;
59530;SDS011;45349;48.692;8.186;2023-07-30T13:48:27;4.93;;;1.33;;
59530;SDS011;45349;48.692;8.186;2023-07-30T13:50:53;10.20;;;1.67;;
59530;SDS011;45349;48.692;8.186;2023-07-30T13:53:20;3.90;;;1.40;;
59530;SDS011;45349;48.692;8.186;2023-07-30T13:55:46;3.67;;;1.30;;
59530;SDS011;45349;48.692;8.186;2023-07-30T13:58:14;3.03;;;1.13;;
59530;SDS011;45349;48.692;8.186;2023-07-30T14:00:41;4.73;;;1.50;;
59530;SDS011;45349;48.692;8.186;2023-07-30T14:03:08;4.87;;;1.70;;
59530;SDS011;45349;48.692;8.186;2023-07-30T14:05:36;7.07;;;1.60;;
59530;SDS011;45349;48.692;8.186;2023-07-30T14:08:03;4.20;;;1.40;;
59530;SDS011;45349;48.692;8.186;2023-07-30T14:10:30;1.83;;;1.13;;
59530;SDS011;45349;48.692;8.186;2023-07-30T14:12:56;3.07;;;1.20;;
59530;SDS011;45349;48.692;8.186;2023-07-30T14:15:24;2.40;;;0.90;;
59530;SDS011;45349;48.692;8.186;2023-07-30T14:17:51;3.10;;;1.10;;
59530;SDS011;45349;48.692;8.186;2023-07-30T14:20:17;6.93;;;1.43;;
59530;SDS011;45349;48.692;8.186;2023-07-30T14:22:44;5.10;;;1.30;;
59530;SDS011;45349;48.692;8.186;2023-07-30T14:25:11;3.93;;;1.20;;
59530;SDS011;45349;48.692;8.186;2023-07-30T14:27:37;4.90;;;1.50;;
59530;SDS011;45349;48.692;8.186;2023-07-30T14:30:04;2.93;;;1.10;;
59530;SDS011;45349;48.692;8.186;2023-07-30T14:32:33;2.83;;;1.10;;
59530;SDS011;45349;48.692;8.186;2023-07-30T14:35:00;4.03;;;1.13;;
59530;SDS011;45349;48.692;8.186;2023-07-30T14:37:26;4.03;;;1.00;;
59530;SDS011;45349;48.692;8.186;2023-07-30T14:39:54;5.23;;;1.00;;
59530;SDS011;45349;48.692;8.186;2023-07-30T14:42:20;2.50;;;0.90;;
59530;SDS011;45349;48.692;8.186;2023-07-30T14:45:13;3.03;;;1.43;;
59530;SDS011;45349;48.692;8.186;2023-07-30T14:47:41;2.97;;;1.10;;
59530;SDS011;45349;48.692;8.186;2023-07-30T14:50:08;2.97;;;1.03;;
59530;SDS011;45349;48.692;8.186;2023-07-30T14:52:35;4.03;;;1.10;;
59530;SDS011;45349;48.692;8.186;2023-07-30T14:55:02;2.40;;;1.00;;
59530;SDS011;45349;48.692;8.186;2023-07-30T14:57:28;5.17;;;1.13;;
59530;SDS011;45349;48.692;8.186;2023-07-30T14:59:55;5.30;;;1.10;;